Time;durP1;ratioP1;P1;durP2;ratioP2;P2;SDS_P1;SDS_P2;PMS_P1;PMS_P2;Temp;Humidity;BMP_temperature;BMP_pressure;BME280_temperature;BME280_humidity;BME280_pressure;Samples;Min_cycle;Max_cycle;Signal;HPM_P1;HPM_P2
2022/02/03 00:00:42;;;;;;;4.95;1.30;;;17.00;55.50;;;;;;5039235;28;20136;-58
2022/02/03 00:03:20;;;;;;;5.22;1.17;;;17.00;55.50;;;;;;5037602;28;20033;-56
2022/02/03 00:08:31;;;;;;;5.85;1.15;;;17.00;55.50;;;;;;5040553;28;20510;-53
2022/02/03 00:22:14;;;;;;;3.75;1.13;;;17.00;55.40;;;;;;5038064;28;20032;-53
2022/02/03 00:25:02;;;;;;;2.75;1.00;;;17.00;55.40;;;;;;5036600;28;20318;-61
2022/02/03 00:27:55;;;;;;;6.03;1.13;;;17.00;55.50;;;;;;5041944;28;20045;-59
2022/02/03 00:30:31;;;;;;;2.13;1.10;;;17.00;55.40;;;;;;5024208;28;20029;-55
2022/02/03 00:49:35;;;;;;;3.13;1.02;;;17.00;56.10;;;;;;5039663;28;20079;-55
2022/02/03 00:52:01;;;;;;;3.10;1.40;;;16.90;56.00;;;;;;5040564;28;20056;-59
2022/02/03 00:54:30;;;;;;;2.88;1.67;;;16.90;56.10;;;;;;5040233;28;20056;-60
2022/02/03 00:57:03;;;;;;;3.17;1.17;;;16.90;56.00;;;;;;5039774;28;20090;-59
2022/02/03 00:59:34;;;;;;;4.30;1.33;;;17.00;56.00;;;;;;5040246;28;20490;-57
2022/02/03 01:02:00;;;;;;;3.67;1.38;;;16.90;55.90;;;;;;5039497;28;20048;-54
2022/02/03 01:04:28;;;;;;;3.13;1.15;;;17.00;55.90;;;;;;5039287;28;20037;-58
2022/02/03 01:06:56;;;;;;;4.57;0.98;;;17.00;55.90;;;;;;5039929;28;20049;-59
2022/02/03 01:09:24;;;;;;;3.45;1.33;;;17.00;55.80;;;;;;5039166;28;20029;-51
2022/02/03 01:11:58;;;;;;;4.32;1.20;;;17.00;55.70;;;;;;5022050;28;20022;-57
2022/02/03 01:14:35;;;;;;;3.10;0.88;;;17.00;55.70;;;;;;5039101;28;20495;-58
2022/02/03 01:17:22;;;;;;;3.30;1.05;;;16.90;55.60;;;;;;5039619;28;20044;-56
2022/02/03 01:33:48;;;;;;;1.92;1.02;;;17.00;55.20;;;;;;5039201;28;20044;-56
2022/02/03 01:44:45;;;;;;;7.28;1.30;;;17.00;55.00;;;;;;5018073;28;20068;-57
2022/02/03 01:47:25;;;;;;;5.05;1.48;;;17.00;54.90;;;;;;5018283;28;20083;-58
2022/02/03 01:52:33;;;;;;;1.50;0.73;;;17.00;54.90;;;;;;5022774;28;20100;-58
2022/02/03 01:54:59;;;;;;;2.22;0.70;;;17.00;54.80;;;;;;5022994;28;20578;-59
2022/02/03 01:57:31;;;;;;;3.38;1.17;;;16.90;54.80;;;;;;5022145;28;20033;-58
2022/02/03 02:00:00;;;;;;;3.15;1.25;;;16.90;54.90;;;;;;5019920;28;20352;-58
2022/02/03 02:02:31;;;;;;;2.45;0.88;;;17.00;54.90;;;;;;5015378;28;20036;-59
2022/02/03 02:05:32;;;;;;;4.22;1.20;;;16.90;54.80;;;;;;4997206;28;20033;-59
2022/02/03 02:08:07;;;;;;;3.08;1.10;;;17.00;54.80;;;;;;5015906;28;20017;-56
2022/02/03 02:13:50;;;;;;;4.25;1.52;;;17.00;54.80;;;;;;5018461;28;20033;-59
2022/02/03 02:19:12;;;;;;;3.47;1.25;;;16.90;54.70;;;;;;5009841;28;20017;-58
2022/02/03 02:39:00;;;;;;;2.47;0.98;;;16.90;54.60;;;;;;4989528;28;20048;-58
2022/02/03 02:44:27;;;;;;;3.08;1.00;;;16.90;54.50;;;;;;5017517;28;20033;-56
2022/02/03 02:46:54;;;;;;;5.28;0.90;;;16.90;54.50;;;;;;4991287;28;20304;-58
2022/02/03 02:49:36;;;;;;;4.13;1.10;;;16.90;54.60;;;;;;5038765;28;20037;-59
2022/02/03 02:52:09;;;;;;;2.83;1.13;;;16.90;54.60;;;;;;5006225;28;20099;-57
2022/02/03 02:57:58;;;;;;;4.35;1.20;;;16.80;54.50;;;;;;5037037;28;20021;-55
2022/02/03 03:29:01;;;;;;;3.85;1.48;;;16.80;54.50;;;;;;5038288;28;20060;-58
2022/02/03 03:34:03;;;;;;;4.15;1.45;;;16.70;55.10;;;;;;5030289;28;20040;-56
2022/02/03 03:36:28;;;;;;;4.40;1.20;;;16.70;55.10;;;;;;5037627;28;20025;-59
2022/02/03 03:38:54;;;;;;;3.03;1.00;;;16.70;55.10;;;;;;5040722;28;20665;-59
2022/02/03 03:41:20;;;;;;;6.10;1.23;;;16.70;55.20;;;;;;5038278;28;20071;-55
2022/02/03 03:44:03;;;;;;;3.33;1.90;;;16.70;55.20;;;;;;5042193;28;20136;-59
2022/02/03 03:46:37;;;;;;;2.35;0.65;;;16.80;55.20;;;;;;5036882;28;20063;-57
2022/02/03 03:49:26;;;;;;;2.85;1.10;;;16.80;55.30;;;;;;5040971;28;20033;-56
2022/02/03 03:51:59;;;;;;;3.80;0.95;;;16.70;55.20;;;;;;5037644;28;20738;-57
2022/02/03 03:54:37;;;;;;;3.50;1.15;;;16.80;55.30;;;;;;5025094;28;20040;-58
2022/02/03 03:57:31;;;;;;;3.35;1.10;;;16.70;55.20;;;;;;5038777;28;20033;-56
2022/02/03 04:36:56;;;;;;;3.55;1.10;;;16.70;55.30;;;;;;5040711;28;20118;-56
2022/02/03 04:51:29;;;;;;;2.78;0.73;;;16.80;55.20;;;;;;5018652;28;20048;-56
2022/02/03 05:02:52;;;;;;;2.17;1.10;;;16.80;54.90;;;;;;5035108;28;20041;-58
2022/02/03 05:05:57;;;;;;;4.40;1.02;;;16.80;54.90;;;;;;5036010;28;20102;-58
2022/02/03 05:11:45;;;;;;;3.00;1.00;;;16.80;55.10;;;;;;5039870;28;20032;-59
2022/02/03 05:15:02;;;;;;;5.85;1.08;;;16.80;55.10;;;;;;5012280;28;20737;-59
2022/02/03 05:20:37;;;;;;;5.03;1.10;;;16.80;55.00;;;;;;5038374;28;20053;-55
2022/02/03 05:23:36;;;;;;;2.78;0.80;;;16.80;55.10;;;;;;5034038;28;20029;-60
2022/02/03 05:32:41;;;;;;;2.60;0.82;;;16.80;55.00;;;;;;5036061;28;20044;-59
2022/02/03 05:42:02;;;;;;;3.80;0.80;;;16.80;54.90;;;;;;5042970;28;20037;-57
2022/02/03 05:47:10;;;;;;;1.98;0.80;;;16.80;54.70;;;;;;5032736;28;20052;-59
2022/02/03 05:52:38;;;;;;;2.35;1.00;;;16.80;54.60;;;;;;5033837;28;20036;-56
2022/02/03 06:01:03;;;;;;;4.35;1.15;;;16.80;54.40;;;;;;5036777;28;20082;-55
2022/02/03 06:08:33;;;;;;;2.97;0.90;;;16.80;54.20;;;;;;5033612;28;20053;-60
2022/02/03 06:21:38;;;;;;;4.05;0.90;;;16.80;54.50;;;;;;5038651;28;20032;-58
2022/02/03 06:24:30;;;;;;;2.25;0.80;;;16.80;54.60;;;;;;5028454;28;20052;-57
2022/02/03 06:29:47;;;;;;;5.22;1.80;;;16.80;54.90;;;;;;5037471;28;20437;-60
2022/02/03 06:32:13;;;;;;;5.82;2.25;;;16.80;54.90;;;;;;5037805;28;20441;-57
2022/02/03 06:34:38;;;;;;;8.07;2.15;;;16.80;54.90;;;;;;5034170;28;20647;-57
2022/02/03 06:37:04;;;;;;;5.20;2.05;;;16.80;54.80;;;;;;5039710;28;20033;-59
2022/02/03 06:39:30;;;;;;;8.20;3.47;;;16.70;54.70;;;;;;5039329;28;20530;-57
2022/02/03 06:41:58;;;;;;;6.80;3.45;;;16.70;54.70;;;;;;5038040;28;20033;-58
2022/02/03 06:44:32;;;;;;;7.75;3.60;;;16.70;54.60;;;;;;5034416;28;20045;-55
2022/02/03 06:47:03;;;;;;;13.10;3.60;;;16.80;54.60;;;;;;5023592;28;20036;-58
2022/02/03 06:49:52;;;;;;;19.83;3.88;;;16.80;54.40;;;;;;5035044;28;20035;-54
2022/02/03 06:52:27;;;;;;;8.90;3.33;;;16.80;54.40;;;;;;5037066;28;20047;-56
2022/02/03 06:55:03;;;;;;;10.45;2.90;;;16.80;54.30;;;;;;5022491;28;20541;-55
2022/02/03 06:57:38;;;;;;;8.77;3.50;;;16.80;54.20;;;;;;5022739;28;20025;-57
2022/02/03 07:00:09;;;;;;;8.43;3.33;;;16.70;54.30;;;;;;5031511;28;20426;-56
2022/02/03 07:02:40;;;;;;;5.20;2.42;;;16.70;54.30;;;;;;5038627;28;20509;-58
2022/02/03 07:05:06;;;;;;;6.53;2.45;;;16.70;54.40;;;;;;5037575;28;20159;-59
2022/02/03 07:07:32;;;;;;;8.18;2.67;;;16.70;54.50;;;;;;5033771;28;20029;-57
2022/02/03 07:09:57;;;;;;;11.98;3.92;;;16.70;54.50;;;;;;5042163;28;20681;-57
2022/02/03 07:12:23;;;;;;;8.30;2.67;;;16.70;54.60;;;;;;5038967;28;20111;-56
2022/02/03 07:14:49;;;;;;;7.25;3.03;;;16.70;54.60;;;;;;5032629;28;20076;-55
2022/02/03 07:17:14;;;;;;;9.15;2.67;;;16.70;54.70;;;;;;5037645;28;20036;-55
2022/02/03 07:19:46;;;;;;;7.30;2.50;;;16.70;54.70;;;;;;5037411;28;20064;-58
2022/02/03 07:22:12;;;;;;;5.85;3.63;;;16.70;54.70;;;;;;5035004;28;20033;-60
2022/02/03 07:24:37;;;;;;;12.55;4.05;;;16.70;55.20;;;;;;5039053;28;20060;-57
2022/02/03 07:27:03;;;;;;;6.63;3.50;;;16.60;55.20;;;;;;5039743;28;20059;-56
2022/02/03 07:29:29;;;;;;;10.10;4.10;;;16.70;55.20;;;;;;5038393;28;20636;-60
2022/02/03 07:31:54;;;;;;;9.55;3.50;;;16.70;55.20;;;;;;5037014;28;20036;-58
2022/02/03 07:34:20;;;;;;;9.13;3.45;;;16.70;55.20;;;;;;5038843;28;20063;-57
2022/02/03 07:36:47;;;;;;;12.00;3.45;;;16.70;55.10;;;;;;5039333;28;20058;-55
2022/02/03 07:39:12;;;;;;;6.65;3.13;;;16.70;55.10;;;;;;5035738;28;20444;-56
2022/02/03 07:41:38;;;;;;;8.43;2.80;;;16.70;55.20;;;;;;5028147;28;20104;-56
2022/02/03 07:44:04;;;;;;;12.30;3.85;;;16.70;55.40;;;;;;5008435;28;20107;-56
2022/02/03 07:46:30;;;;;;;6.63;3.70;;;16.60;55.40;;;;;;5034364;28;20518;-57
2022/02/03 07:48:59;;;;;;;12.88;4.50;;;16.70;55.60;;;;;;5043012;28;20037;-58
2022/02/03 07:51:25;;;;;;;11.55;4.50;;;16.70;55.80;;;;;;5042572;28;20033;-59
2022/02/03 07:53:50;;;;;;;10.00;4.60;;;16.70;55.80;;;;;;5041051;28;20029;-57
2022/02/03 07:56:16;;;;;;;9.40;3.65;;;16.70;55.80;;;;;;5041857;28;20037;-58
2022/02/03 07:58:41;;;;;;;18.55;5.30;;;16.60;55.70;;;;;;5040651;28;20445;-60
2022/02/03 08:01:07;;;;;;;18.75;6.35;;;16.70;56.10;;;;;;5040472;28;20065;-58
2022/02/03 08:03:32;;;;;;;18.52;7.80;;;16.70;56.60;;;;;;5042416;28;20029;-55
2022/02/03 08:06:03;;;;;;;15.80;6.50;;;16.70;56.80;;;;;;5042455;28;20028;-60
2022/02/03 08:08:34;;;;;;;15.57;6.47;;;16.70;56.90;;;;;;5039682;28;20376;-58
2022/02/03 08:11:05;;;;;;;16.90;6.95;;;16.80;57.00;;;;;;5043356;28;20033;-58
2022/02/03 08:13:34;;;;;;;14.60;6.68;;;16.80;57.10;;;;;;5040632;28;20274;-59
2022/02/03 08:16:06;;;;;;;12.23;5.78;;;16.80;57.00;;;;;;5041524;28;20037;-56
2022/02/03 08:18:33;;;;;;;12.65;5.32;;;16.80;57.60;;;;;;5005408;28;20502;-56
2022/02/03 08:21:03;;;;;;;19.23;6.68;;;16.80;56.90;;;;;;5008326;28;20136;-56
2022/02/03 08:26:12;;;;;;;12.15;5.57;;;16.80;57.00;;;;;;5026606;28;20037;-55
2022/02/03 08:29:07;;;;;;;18.52;5.38;;;16.80;57.40;;;;;;5022420;28;20037;-56
2022/02/03 08:31:51;;;;;;;12.40;5.38;;;16.70;57.50;;;;;;5044873;28;20025;-57
2022/02/03 08:34:22;;;;;;;17.75;5.18;;;16.70;57.80;;;;;;5043769;28;20040;-56
2022/02/03 08:36:48;;;;;;;13.38;4.88;;;16.70;57.50;;;;;;5036354;28;20029;-53
2022/02/03 08:39:19;;;;;;;8.88;4.00;;;16.70;57.60;;;;;;5046427;28;20033;-56
2022/02/03 08:41:44;;;;;;;11.50;4.28;;;16.70;57.60;;;;;;5042950;28;20048;-57
2022/02/03 08:44:10;;;;;;;13.02;4.43;;;16.70;57.50;;;;;;5039841;28;20042;-57
2022/02/03 08:46:35;;;;;;;10.38;4.40;;;16.70;57.40;;;;;;5040319;28;20025;-60
2022/02/03 08:49:05;;;;;;;8.52;4.18;;;16.80;57.40;;;;;;5039056;28;20037;-59
2022/02/03 08:51:31;;;;;;;18.45;4.97;;;16.70;57.30;;;;;;5039111;28;20025;-57
2022/02/03 08:54:04;;;;;;;10.15;3.72;;;16.80;57.40;;;;;;5040608;28;20102;-55
2022/02/03 08:56:57;;;;;;;8.52;3.22;;;16.80;57.40;;;;;;5038797;28;20026;-56
2022/02/03 09:35:25;;;;;;;6.85;3.50;;;16.80;57.80;;;;;;5028954;22;20064;-69
2022/02/03 09:40:55;;;;;;;7.93;3.63;;;16.90;57.90;;;;;;5021968;28;20120;-67
2022/02/03 09:54:32;;;;;;;5.63;2.37;;;16.90;58.80;;;;;;5004693;28;20652;-68
2022/02/03 10:00:04;;;;;;;7.55;2.90;;;16.90;58.90;;;;;;4999446;28;20084;-71
2022/02/03 10:02:25;;;;;;;6.88;2.67;;;16.90;59.00;;;;;;5002850;28;20064;-68
2022/02/03 10:05:12;;;;;;;8.05;2.42;;;16.90;59.20;;;;;;5003259;28;20045;-66
2022/02/03 10:07:38;;;;;;;5.78;3.08;;;16.90;59.20;;;;;;5002391;28;20620;-68
2022/02/03 10:10:08;;;;;;;4.60;2.42;;;16.90;59.20;;;;;;5002614;28;20546;-68
2022/02/03 10:12:38;;;;;;;6.85;2.55;;;16.90;59.10;;;;;;5004550;28;20503;-68
2022/02/03 10:15:05;;;;;;;6.05;2.70;;;16.90;59.00;;;;;;4997974;28;20018;-68
2022/02/03 10:17:32;;;;;;;6.75;2.75;;;16.90;59.00;;;;;;5003913;28;20048;-68
2022/02/03 10:20:03;;;;;;;5.95;2.60;;;16.90;58.80;;;;;;5001384;28;20018;-68
2022/02/03 10:22:28;;;;;;;6.45;2.33;;;16.90;58.70;;;;;;5003922;28;20686;-68
2022/02/03 10:25:09;;;;;;;6.70;2.47;;;16.90;59.40;;;;;;5001943;28;20044;-67
2022/02/03 10:27:38;;;;;;;4.93;2.30;;;16.90;58.70;;;;;;5003819;28;20697;-68
2022/02/03 10:30:33;;;;;;;6.53;2.25;;;16.90;58.70;;;;;;5001448;28;20026;-69
2022/02/03 10:32:59;;;;;;;3.38;2.03;;;16.90;58.70;;;;;;5002665;28;20374;-67
2022/02/03 10:35:40;;;;;;;4.75;2.28;;;16.90;58.80;;;;;;5003135;28;20045;-68
2022/02/03 10:43:51;;;;;;;5.00;2.38;;;16.90;58.90;;;;;;5002835;28;20060;-68
2022/02/03 10:54:12;;;;;;;6.65;2.22;;;17.00;58.80;;;;;;5002014;28;20080;-68
2022/02/03 10:57:14;;;;;;;4.53;1.65;;;17.00;58.90;;;;;;5001957;28;20394;-68
2022/02/03 11:00:55;;;;;;;7.00;2.63;;;17.00;58.70;;;;;;5002225;28;20101;-67
2022/02/03 11:05:40;;;;;;;4.35;1.98;;;17.00;58.50;;;;;;5002792;28;20037;-67
2022/02/03 11:08:17;;;;;;;4.68;2.25;;;17.00;58.50;;;;;;5001653;28;20029;-68
2022/02/03 11:10:45;;;;;;;6.72;2.03;;;17.00;58.40;;;;;;5001390;28;20018;-67
2022/02/03 11:13:12;;;;;;;4.45;1.63;;;17.10;58.50;;;;;;5002526;28;20440;-69
2022/02/03 11:15:38;;;;;;;5.38;2.10;;;17.00;58.30;;;;;;5001926;28;20025;-68
2022/02/03 11:18:06;;;;;;;4.28;2.15;;;17.10;58.30;;;;;;5001610;28;20093;-67
2022/02/03 11:20:32;;;;;;;4.68;2.17;;;17.10;58.20;;;;;;5004448;28;20489;-67
2022/02/03 11:25:58;;;;;;;2.95;1.77;;;17.00;58.30;;;;;;5003579;28;20076;-67
2022/02/03 11:28:58;;;;;;;4.88;2.00;;;17.10;58.60;;;;;;5005360;28;20057;-67
2022/02/03 11:31:51;;;;;;;3.55;1.77;;;17.10;58.60;;;;;;5003171;28;20030;-66
2022/02/03 11:34:38;;;;;;;3.45;1.52;;;17.10;58.70;;;;;;5005459;28;20080;-67
2022/02/03 11:37:23;;;;;;;3.65;1.83;;;17.00;58.70;;;;;;5006451;28;20580;-66
2022/02/03 11:41:11;;;;;;;4.25;1.63;;;17.10;58.80;;;;;;5006116;28;20776;-67
2022/02/03 11:43:36;;;;;;;5.93;1.75;;;17.10;58.80;;;;;;5000917;28;20042;-67
2022/02/03 11:46:30;;;;;;;3.50;1.48;;;17.10;58.80;;;;;;5005813;28;20118;-67
2022/02/03 11:52:01;;;;;;;3.97;1.50;;;17.00;58.90;;;;;;5006865;28;20546;-67
2022/02/03 11:57:13;;;;;;;3.78;1.55;;;17.10;59.10;;;;;;5008941;28;20034;-67
2022/02/03 12:02:39;;;;;;;3.08;1.60;;;17.10;59.10;;;;;;5007093;28;19913;-67
2022/02/03 12:11:21;;;;;;;3.13;1.33;;;17.10;59.20;;;;;;5006144;28;20041;-67
2022/02/03 12:19:16;;;;;;;6.00;1.63;;;17.00;59.40;;;;;;5005549;28;20037;-67
2022/02/03 12:24:32;;;;;;;2.75;1.50;;;17.00;59.20;;;;;;5007559;28;20553;-67
2022/02/03 12:27:09;;;;;;;4.53;1.30;;;17.00;59.30;;;;;;5006214;28;20018;-67
2022/02/03 12:29:45;;;;;;;2.42;1.00;;;17.10;59.40;;;;;;5009824;28;20028;-67
2022/02/03 12:32:22;;;;;;;3.40;1.83;;;17.00;59.30;;;;;;5006080;28;20030;-67
2022/02/03 12:38:01;;;;;;;3.47;1.35;;;17.10;59.50;;;;;;5002483;28;20064;-67
2022/02/03 12:45:46;;;;;;;3.17;1.20;;;17.10;59.70;;;;;;5005271;28;20044;-66
2022/02/03 12:48:12;;;;;;;3.95;1.80;;;17.10;59.60;;;;;;5005486;28;20026;-66
2022/02/03 12:50:39;;;;;;;1.55;1.15;;;17.00;59.60;;;;;;5004749;28;20396;-66
2022/02/03 12:53:05;;;;;;;2.55;1.30;;;17.10;59.70;;;;;;5005350;28;20014;-66
2022/02/03 12:55:32;;;;;;;2.00;1.30;;;17.00;59.70;;;;;;5005326;28;20400;-67
2022/02/03 12:57:59;;;;;;;2.75;1.20;;;17.00;59.60;;;;;;5003733;28;20018;-64
2022/02/03 13:00:34;;;;;;;2.63;1.40;;;17.10;59.70;;;;;;5005220;28;20030;-67
2022/02/03 13:03:02;;;;;;;1.98;1.20;;;17.10;59.80;;;;;;5000712;28;20452;-66
2022/02/03 13:05:32;;;;;;;2.90;1.30;;;17.10;59.80;;;;;;5004913;28;20029;-66
2022/02/03 13:07:58;;;;;;;2.70;1.05;;;17.10;59.80;;;;;;5005178;28;20018;-67
2022/02/03 13:10:26;;;;;;;4.00;1.95;;;17.10;59.70;;;;;;5004635;28;20524;-66
2022/02/03 13:13:01;;;;;;;1.52;1.05;;;17.10;59.80;;;;;;5004122;28;20025;-66
2022/02/03 13:15:33;;;;;;;1.75;0.98;;;17.00;59.90;;;;;;5002938;28;20025;-66
2022/02/03 13:18:00;;;;;;;2.20;1.17;;;17.10;59.90;;;;;;5004759;28;20025;-66
2022/02/03 13:20:35;;;;;;;3.03;1.13;;;17.10;59.90;;;;;;5004420;28;20021;-67
2022/02/03 13:23:05;;;;;;;1.42;0.93;;;17.10;59.90;;;;;;5001690;28;20026;-67
2022/02/03 13:25:41;;;;;;;2.95;1.08;;;17.10;60.00;;;;;;5004455;28;20018;-67
2022/02/03 13:28:13;;;;;;;2.30;0.90;;;17.10;60.00;;;;;;5004893;28;20037;-66
2022/02/03 13:33:07;;;;;;;1.90;0.90;;;17.10;60.00;;;;;;5004799;28;20022;-66
2022/02/03 13:38:38;;;;;;;1.77;1.15;;;17.10;60.00;;;;;;5004071;28;20083;-65
2022/02/03 13:41:17;;;;;;;2.88;1.40;;;17.10;60.00;;;;;;5004422;28;20130;-67
2022/02/03 13:43:43;;;;;;;1.85;0.90;;;17.10;60.10;;;;;;5002597;28;20053;-67
2022/02/03 13:46:09;;;;;;;1.90;1.10;;;17.10;60.40;;;;;;5003531;28;20065;-67
2022/02/03 13:48:37;;;;;;;2.35;0.90;;;17.10;60.50;;;;;;5004108;28;20638;-66
2022/02/03 13:51:03;;;;;;;1.92;0.90;;;17.00;60.50;;;;;;5004008;28;20042;-67
2022/02/03 13:53:38;;;;;;;4.10;1.00;;;17.00;60.60;;;;;;5004601;28;20026;-68
2022/02/03 14:11:03;;;;;;;1.40;0.80;;;17.10;60.70;;;;;;4999505;28;20091;-67
2022/02/03 14:16:12;;;;;;;3.17;1.00;;;17.10;60.60;;;;;;4997313;28;20018;-68
2022/02/03 14:21:28;;;;;;;2.33;0.90;;;17.10;60.70;;;;;;4999181;28;20057;-66
2022/02/03 14:29:12;;;;;;;2.53;0.88;;;17.10;60.60;;;;;;5003456;28;20077;-66
2022/02/03 14:31:38;;;;;;;2.38;1.08;;;17.10;60.70;;;;;;5003651;28;20018;-66
2022/02/03 14:34:09;;;;;;;1.80;0.80;;;17.10;61.40;;;;;;5002374;28;20029;-66
2022/02/03 14:36:35;;;;;;;3.50;0.82;;;17.20;60.80;;;;;;4999366;28;20037;-68
2022/02/03 14:39:24;;;;;;;8.50;1.10;;;17.20;60.80;;;;;;5017252;28;20037;-68
2022/02/03 14:41:50;;;;;;;3.08;0.90;;;17.20;60.80;;;;;;4977554;28;20046;-68
2022/02/03 14:44:17;;;;;;;1.70;1.20;;;17.20;60.70;;;;;;5020609;28;20288;-65
2022/02/03 14:46:43;;;;;;;1.45;1.15;;;17.20;60.70;;;;;;5000955;28;20450;-64
2022/02/03 14:49:09;;;;;;;1.25;0.90;;;17.20;60.50;;;;;;5011614;28;20034;-63
2022/02/03 14:51:45;;;;;;;2.00;0.80;;;17.20;60.60;;;;;;4984066;28;20139;-69
2022/02/03 14:59:32;;;;;;;7.60;0.98;;;17.20;60.70;;;;;;4999380;28;20037;-68
2022/02/03 15:01:59;;;;;;;2.17;0.95;;;17.20;60.80;;;;;;4999043;28;20033;-68
2022/02/03 15:04:28;;;;;;;1.27;0.88;;;17.20;60.80;;;;;;5002785;28;20042;-64
2022/02/03 15:07:01;;;;;;;1.63;0.85;;;17.20;60.70;;;;;;5002814;28;20049;-68
2022/02/03 15:12:59;;;;;;;1.70;0.90;;;17.20;60.70;;;;;;4995587;28;20148;-69
2022/02/03 15:15:00;;;;;;;1.20;0.80;;;17.20;60.70;;;;;;4985029;28;20674;-64
2022/02/03 15:17:29;;;;;;;1.88;0.90;;;17.20;60.70;;;;;;5005424;28;20729;-65
2022/02/03 15:19:58;;;;;;;2.05;0.90;;;17.20;60.60;;;;;;5009654;28;20107;-64
2022/02/03 15:22:24;;;;;;;2.47;0.65;;;17.20;60.60;;;;;;4996259;28;20033;-68
2022/02/03 15:24:50;;;;;;;1.70;1.00;;;17.20;60.60;;;;;;5009848;28;20061;-66
2022/02/03 15:27:16;;;;;;;1.35;0.77;;;17.30;60.60;;;;;;5002272;28;20701;-68
2022/02/03 15:29:46;;;;;;;2.97;0.90;;;17.20;60.50;;;;;;5006775;28;20103;-68
2022/02/03 15:32:11;;;;;;;1.83;1.20;;;17.30;60.40;;;;;;4995913;28;20045;-69
2022/02/03 15:34:37;;;;;;;1.63;0.90;;;17.30;60.40;;;;;;5032008;22;20065;-63
2022/02/03 15:37:10;;;;;;;1.02;0.88;;;17.30;60.30;;;;;;4975372;28;20421;-63
2022/02/03 15:39:37;;;;;;;3.60;1.00;;;17.30;60.90;;;;;;4987612;28;20042;-63
2022/02/03 15:42:04;;;;;;;1.75;0.98;;;17.30;60.20;;;;;;5000074;28;20411;-63
2022/02/03 15:44:37;;;;;;;1.70;1.00;;;17.30;60.10;;;;;;5000748;28;20045;-63
2022/02/03 15:47:07;;;;;;;3.15;1.38;;;17.30;60.20;;;;;;4976761;28;20027;-63
2022/02/03 15:50:01;;;;;;;1.05;0.90;;;17.30;60.20;;;;;;4980433;28;20035;-64
2022/02/03 15:58:42;;;;;;;2.13;0.85;;;17.30;60.10;;;;;;4978816;28;20061;-63
2022/02/03 16:01:17;;;;;;;2.08;1.25;;;17.30;60.10;;;;;;4980215;28;20046;-64
2022/02/03 16:17:22;;;;;;;1.42;0.75;;;17.30;60.10;;;;;;4964042;28;20038;-64
2022/02/03 16:20:04;;;;;;;2.75;1.30;;;17.30;60.00;;;;;;4964204;28;20809;-64
2022/02/03 16:22:44;;;;;;;1.90;1.10;;;17.30;60.00;;;;;;4963555;28;20077;-64
2022/02/03 16:52:36;;;;;;;1.20;0.80;;;17.40;60.50;;;;;;4970526;28;20037;-63
2022/02/03 16:55:07;;;;;;;1.60;1.00;;;17.40;60.60;;;;;;4982563;28;20081;-63
2022/02/03 16:57:32;;;;;;;3.47;0.75;;;17.40;60.60;;;;;;4983447;28;20030;-63
2022/02/03 17:00:07;;;;;;;1.05;0.70;;;17.40;60.60;;;;;;4983255;28;20141;-62
2022/02/03 17:02:32;;;;;;;1.70;0.83;;;17.40;60.60;;;;;;4983155;28;20080;-63
2022/02/03 17:04:58;;;;;;;1.98;0.82;;;17.40;60.60;;;;;;4982686;28;20525;-63
2022/02/03 17:07:23;;;;;;;1.45;0.90;;;17.50;60.70;;;;;;4987203;28;20413;-63
2022/02/03 17:09:49;;;;;;;4.50;1.13;;;17.50;60.70;;;;;;4982634;28;20027;-63
2022/02/03 17:12:16;;;;;;;2.15;0.80;;;17.50;60.70;;;;;;4969704;28;20038;-64
2022/02/03 17:14:41;;;;;;;2.78;1.17;;;17.50;60.50;;;;;;4965599;28;20038;-65
2022/02/03 17:17:07;;;;;;;5.47;1.00;;;17.50;60.40;;;;;;4986012;28;20049;-64
2022/02/03 17:19:32;;;;;;;1.45;0.90;;;17.50;60.30;;;;;;4982412;28;20034;-64
2022/02/03 17:21:58;;;;;;;1.77;0.95;;;17.50;60.20;;;;;;4982685;28;20026;-61
2022/02/03 17:24:24;;;;;;;1.25;0.98;;;17.50;60.10;;;;;;4982168;28;20046;-64
2022/02/03 17:27:03;;;;;;;2.50;0.93;;;17.50;60.00;;;;;;4984211;28;20027;-64
2022/02/03 17:29:47;;;;;;;3.20;0.90;;;17.50;59.90;;;;;;4978274;28;20034;-62
2022/02/03 17:44:54;;;;;;;2.22;0.85;;;17.50;59.80;;;;;;4983981;28;20034;-63
2022/02/03 18:11:20;;;;;;;1.75;1.17;;;17.60;59.00;;;;;;4961130;28;20038;-62
2022/02/03 18:28:46;;;;;;;4.07;1.00;;;17.50;59.30;;;;;;4973550;28;20708;-62
2022/02/03 18:36:03;;;;;;;2.78;0.80;;;17.50;59.30;;;;;;4981075;28;20037;-62
2022/02/03 18:49:51;;;;;;;1.48;1.17;;;17.60;59.30;;;;;;4981126;28;20033;-62
2022/02/03 18:52:15;;;;;;;2.30;1.10;;;17.60;59.20;;;;;;4977095;28;20042;-62
2022/02/03 18:55:00;;;;;;;2.20;1.10;;;17.60;59.20;;;;;;4970610;28;20069;-61
2022/02/03 19:21:10;;;;;;;2.80;1.30;;;17.60;59.10;;;;;;4982460;28;20038;-62
2022/02/03 19:23:17;;;;;;;1.33;1.10;;;17.70;59.10;;;;;;4975905;28;20410;-62
2022/02/03 20:01:12;;;;;;;2.25;1.20;;;17.60;59.20;;;;;;4983998;28;20198;-62
2022/02/03 20:03:36;;;;;;;2.75;1.30;;;17.50;59.20;;;;;;4982603;28;20030;-61
2022/02/03 20:06:39;;;;;;;3.10;1.20;;;17.60;59.20;;;;;;4984117;28;20121;-61
2022/02/03 20:09:06;;;;;;;1.42;0.88;;;17.60;59.30;;;;;;4982086;28;20501;-62
2022/02/03 20:11:34;;;;;;;1.10;1.00;;;17.60;59.30;;;;;;4984091;28;20030;-62
2022/02/03 20:13:59;;;;;;;2.35;1.27;;;17.60;59.30;;;;;;4966775;28;20516;-61
2022/02/03 20:16:25;;;;;;;1.33;1.23;;;17.60;59.20;;;;;;4983598;28;20030;-61
2022/02/03 20:18:50;;;;;;;1.88;1.00;;;17.60;59.30;;;;;;4983449;28;20029;-58
2022/02/03 20:21:16;;;;;;;1.33;1.13;;;17.60;59.10;;;;;;4983832;28;20049;-61
2022/02/03 20:23:44;;;;;;;1.40;1.08;;;17.60;59.00;;;;;;4984296;28;20038;-61
2022/02/03 20:26:13;;;;;;;2.33;1.35;;;17.60;59.00;;;;;;4980309;28;20025;-61
2022/02/03 20:28:39;;;;;;;1.98;1.20;;;17.60;59.10;;;;;;4983826;28;20037;-63
2022/02/03 20:31:04;;;;;;;3.15;1.08;;;17.60;59.30;;;;;;4986846;28;20030;-61
2022/02/03 20:33:30;;;;;;;3.05;1.65;;;17.60;59.40;;;;;;4984583;28;20437;-61
2022/02/03 20:35:56;;;;;;;3.40;1.42;;;17.60;59.50;;;;;;4985688;28;20034;-63
2022/02/03 20:38:21;;;;;;;2.92;1.13;;;17.60;59.50;;;;;;4984060;28;20030;-62
2022/02/03 20:40:47;;;;;;;3.22;1.13;;;17.60;59.50;;;;;;4966258;28;20762;-62
2022/02/03 20:43:13;;;;;;;6.85;1.48;;;17.60;59.40;;;;;;4966695;28;20034;-61
2022/02/03 20:45:42;;;;;;;1.30;1.05;;;17.60;59.30;;;;;;4983887;28;20045;-61
2022/02/03 20:48:07;;;;;;;1.83;1.02;;;17.60;59.30;;;;;;4984425;28;20041;-62
2022/02/03 20:50:35;;;;;;;1.58;1.02;;;17.60;59.30;;;;;;4984328;28;20026;-61
2022/02/03 20:53:01;;;;;;;2.72;2.08;;;17.60;59.20;;;;;;4983615;28;20034;-62
2022/02/03 20:55:26;;;;;;;3.53;1.02;;;17.60;59.20;;;;;;4987546;28;20065;-60
2022/02/03 20:57:52;;;;;;;3.60;1.20;;;17.50;59.20;;;;;;4982314;28;20057;-61
2022/02/03 21:02:52;;;;;;;1.25;1.08;;;17.60;59.10;;;;;;4983917;28;20084;-62
2022/02/03 21:05:17;;;;;;;3.47;1.05;;;17.50;59.10;;;;;;4984660;28;20131;-60
2022/02/03 21:07:47;;;;;;;2.20;1.00;;;17.50;59.60;;;;;;4983709;28;20501;-62
2022/02/03 21:10:16;;;;;;;6.13;1.50;;;17.60;59.90;;;;;;4977178;28;20037;-62
2022/02/03 21:12:42;;;;;;;1.38;1.17;;;17.50;60.00;;;;;;4983665;28;20037;-61
2022/02/03 21:15:09;;;;;;;2.33;1.48;;;17.50;60.00;;;;;;4983069;28;20538;-61
2022/02/03 21:17:35;;;;;;;3.38;1.00;;;17.60;60.00;;;;;;4966937;28;20422;-62
2022/02/03 21:20:13;;;;;;;3.03;0.98;;;17.60;60.00;;;;;;4982423;28;20038;-62
2022/02/03 21:22:38;;;;;;;2.80;1.35;;;17.60;60.00;;;;;;4983537;28;20173;-62
2022/02/03 21:25:16;;;;;;;2.67;1.42;;;17.60;59.90;;;;;;4985415;28;20550;-63
2022/02/03 21:27:42;;;;;;;1.60;1.08;;;17.60;59.90;;;;;;4966926;28;20049;-62
2022/02/03 21:30:08;;;;;;;1.77;1.17;;;17.60;59.70;;;;;;4983006;28;20034;-61
2022/02/03 21:32:34;;;;;;;1.67;1.25;;;17.60;59.80;;;;;;4982902;28;20413;-61
2022/02/03 21:34:59;;;;;;;1.95;1.20;;;17.60;59.70;;;;;;4981560;28;20030;-62
2022/02/03 21:37:25;;;;;;;3.15;1.50;;;17.60;59.70;;;;;;5044041;22;20140;-76
2022/02/03 21:39:54;;;;;;;1.50;1.40;;;17.60;59.50;;;;;;5008191;28;20025;-74
2022/02/03 21:42:20;;;;;;;1.38;0.95;;;17.50;59.50;;;;;;5031644;28;20497;-75
2022/02/03 21:44:46;;;;;;;1.10;1.00;;;17.60;60.10;;;;;;5049138;28;20081;-74
2022/02/03 21:47:11;;;;;;;1.70;1.20;;;17.60;59.50;;;;;;5044977;28;20171;-75
2022/02/03 21:49:37;;;;;;;2.63;1.50;;;17.50;59.40;;;;;;5071307;28;20035;-75
2022/02/03 21:52:02;;;;;;;2.55;1.02;;;17.50;59.30;;;;;;5041536;28;20035;-75
2022/02/03 21:54:31;;;;;;;2.85;1.92;;;17.50;59.20;;;;;;5038985;28;20024;-75
2022/02/03 21:56:56;;;;;;;2.30;1.20;;;17.50;59.90;;;;;;5017684;28;20124;-74
2022/02/03 21:59:22;;;;;;;1.60;1.10;;;17.50;59.20;;;;;;5072840;28;20183;-74
2022/02/03 22:01:47;;;;;;;2.10;1.40;;;17.60;59.20;;;;;;5050701;28;20448;-74
2022/02/03 22:04:13;;;;;;;2.10;1.15;;;17.50;59.10;;;;;;5045688;28;20189;-74
2022/02/03 22:06:38;;;;;;;2.00;1.10;;;17.60;59.20;;;;;;5055580;28;20543;-74
2022/02/03 22:09:04;;;;;;;1.23;1.05;;;17.50;59.00;;;;;;5045054;28;20032;-74
2022/02/03 22:11:30;;;;;;;3.35;1.10;;;17.50;59.00;;;;;;5037393;28;20038;-74